Time;durP1;ratioP1;P1;durP2;ratioP2;P2;SDS_P1;SDS_P2;PMS_P1;PMS_P2;Temp;Humidity;BMP_temperature;BMP_pressure;BME280_temperature;BME280_humidity;BME280_pressure;Samples;Min_cycle;Max_cycle;Signal;HPM_P1;HPM_P2
2023/05/30 06:07:25;;;;;;;8.30;6.90;;;;;;;26.20;52.34;100341.19;6651654;26;339110;-86
2023/05/30 06:10:33;;;;;;;13.27;7.30;;;;;;;26.61;52.07;100342.75;6662340;26;33951;-90
2023/05/30 06:13:37;;;;;;;8.07;6.85;;;;;;;27.40;50.40;100342.53;6661407;26;34424;-90
2023/05/30 06:16:41;;;;;;;11.82;7.40;;;;;;;27.20;48.96;100351.25;6661881;26;34679;-91
2023/05/30 06:19:44;;;;;;;10.32;6.97;;;;;;;28.58;43.51;100357.12;6661625;26;34373;-86
2023/05/30 06:22:48;;;;;;;8.07;6.70;;;;;;;29.72;40.36;100349.72;6661957;26;34451;-86
2023/05/30 06:25:53;;;;;;;9.00;7.20;;;;;;;28.50;42.38;100358.09;6662855;26;33923;-86
2023/05/30 06:29:00;;;;;;;9.60;6.70;;;;;;;28.09;41.20;100359.53;6662888;26;33761;-87
2023/05/30 06:32:06;;;;;;;12.98;7.62;;;;;;;28.53;42.13;100352.25;6661192;26;34212;-86
2023/05/30 06:35:19;;;;;;;9.45;7.22;;;;;;;27.84;40.20;100354.44;6661689;26;33937;-86
2023/05/30 06:38:23;;;;;;;13.90;7.07;;;;;;;25.79;47.62;100349.59;6661115;26;33784;-88
2023/05/30 06:41:27;;;;;;;13.82;6.82;;;;;;;25.32;48.97;100351.25;6665692;26;35118;-88
2023/05/30 06:44:32;;;;;;;8.20;6.95;;;;;;;25.24;51.02;100352.97;6671857;26;34960;-90
2023/05/30 07:14:08;;;;;;;13.75;7.40;;;;;;;25.62;50.29;100362.37;6665180;26;20063;-89
2023/05/30 07:17:14;;;;;;;16.70;7.53;;;;;;;26.24;48.10;100358.00;6664212;26;33745;-89
2023/05/30 07:20:22;;;;;;;13.88;8.68;;;;;;;25.56;48.20;100362.06;6668748;26;34771;-89
2023/05/30 07:23:27;;;;;;;15.48;8.25;;;;;;;25.26;47.57;100364.53;6664831;26;34708;-89
2023/05/30 07:26:31;;;;;;;16.17;7.60;;;;;;;25.40;47.84;100365.66;6663873;26;33669;-88
2023/05/30 07:29:34;;;;;;;13.45;7.70;;;;;;;24.68;49.77;100361.84;6663006;26;34170;-87
2023/05/30 07:32:39;;;;;;;14.65;7.50;;;;;;;24.39;49.87;100362.34;6668239;26;33644;-89
2023/05/30 07:35:43;;;;;;;18.40;8.15;;;;;;;24.49;47.31;100365.75;6671805;26;34221;-89
2023/05/30 07:38:48;;;;;;;13.15;8.70;;;;;;;24.76;49.85;100370.00;6664452;26;32433;-89
2023/05/30 07:41:54;;;;;;;15.13;8.80;;;;;;;24.43;49.28;100366.41;6666289;26;34737;-89
2023/05/30 07:45:00;;;;;;;12.82;7.72;;;;;;;25.23;48.17;100369.44;6665212;26;33680;-89
2023/05/30 07:48:05;;;;;;;14.30;6.90;;;;;;;25.41;47.58;100363.78;6666285;26;34196;-88
2023/05/30 07:51:12;;;;;;;12.95;6.87;;;;;;;25.82;46.31;100363.66;6661796;26;34523;-88
2023/05/30 07:54:19;;;;;;;10.60;6.80;;;;;;;26.20;44.76;100370.25;6661871;26;34142;-88
2023/05/30 07:57:22;;;;;;;10.65;5.90;;;;;;;26.10;44.26;100368.59;6662744;26;34275;-89
2023/05/30 08:00:25;;;;;;;12.55;6.55;;;;;;;26.27;42.55;100378.56;6663371;26;33412;-88
2023/05/30 08:03:29;;;;;;;9.90;6.15;;;;;;;26.53;43.24;100375.47;6662384;26;34556;-88
2023/05/30 08:06:34;;;;;;;8.60;6.28;;;;;;;26.61;41.67;100369.97;6662488;26;34739;-88
2023/05/30 08:09:38;;;;;;;10.07;6.20;;;;;;;26.41;41.09;100375.06;6660691;26;33547;-90
2023/05/30 08:12:43;;;;;;;11.00;6.00;;;;;;;27.03;40.87;100373.22;6662962;26;33422;-88
2023/05/30 08:15:51;;;;;;;7.18;5.87;;;;;;;26.70;40.02;100375.34;6662321;26;34549;-88
2023/05/30 08:18:57;;;;;;;8.52;6.10;;;;;;;27.35;38.94;100370.31;6662708;26;34333;-89
2023/05/30 08:22:07;;;;;;;11.88;6.80;;;;;;;27.40;39.20;100367.88;6662021;26;33940;-89
2023/05/30 08:25:10;;;;;;;11.27;6.37;;;;;;;27.68;38.33;100369.13;6664142;26;35023;-92
2023/05/30 08:28:16;;;;;;;10.02;6.03;;;;;;;27.95;38.94;100375.75;6675519;26;35201;-92
2023/05/30 08:31:21;;;;;;;7.35;5.90;;;;;;;27.20;39.32;100367.59;6663477;26;33844;-90
2023/05/30 08:34:28;;;;;;;8.48;5.62;;;;;;;27.91;40.24;100368.97;6663509;26;33558;-89
2023/05/30 08:37:36;;;;;;;8.25;6.18;;;;;;;28.41;38.27;100378.38;6663164;26;34035;-89
2023/05/30 08:44:20;;;;;;;10.18;6.37;;;;;;;28.28;38.08;100366.28;6657870;26;20052;-90
2023/05/30 08:51:15;;;;;;;10.30;5.80;;;;;;;27.53;39.38;100378.12;6656922;26;20071;-89
2023/05/30 08:54:28;;;;;;;8.82;6.20;;;;;;;27.84;39.00;100378.97;6656115;26;34391;-87
2023/05/30 08:57:50;;;;;;;9.68;6.03;;;;;;;27.81;39.34;100373.91;6662989;26;33539;-88
2023/05/30 09:00:57;;;;;;;7.03;6.20;;;;;;;28.28;38.25;100379.91;6662889;26;35107;-89
2023/05/30 09:04:05;;;;;;;8.48;6.03;;;;;;;28.90;36.73;100391.22;6662094;26;34781;-90
2023/05/30 09:07:13;;;;;;;7.65;6.03;;;;;;;29.00;36.84;100396.34;6662764;26;33594;-86
2023/05/30 09:10:21;;;;;;;13.32;6.32;;;;;;;28.50;37.54;100399.87;6663904;26;33924;-87
2023/05/30 09:13:30;;;;;;;13.35;6.30;;;;;;;28.53;39.14;100401.34;6666024;26;33801;-87
2023/05/30 09:16:38;;;;;;;11.45;6.47;;;;;;;29.03;36.82;100406.03;6663782;26;33950;-86
2023/05/30 09:19:44;;;;;;;8.70;6.25;;;;;;;28.76;37.14;100405.78;6663474;26;34111;-87
2023/05/30 09:22:47;;;;;;;12.20;6.47;;;;;;;29.45;37.62;100400.63;6663034;26;34338;-86
2023/05/30 09:25:54;;;;;;;11.75;6.95;;;;;;;28.95;37.70;100404.28;6665987;26;34413;-86
2023/05/30 09:29:07;;;;;;;11.30;6.68;;;;;;;26.82;42.00;100412.00;6672506;26;36512;-86
2023/05/30 09:32:12;;;;;;;8.95;6.55;;;;;;;26.41;43.05;100405.00;6662794;26;34285;-86
2023/05/30 09:35:24;;;;;;;11.27;7.00;;;;;;;26.55;43.19;100407.94;6663172;26;34253;-85
2023/05/30 09:38:29;;;;;;;12.30;6.90;;;;;;;26.58;43.92;100413.00;6662765;26;33802;-87
2023/05/30 09:41:33;;;;;;;14.45;7.18;;;;;;;26.10;45.79;100406.66;6665278;26;33477;-86
2023/05/30 09:44:52;;;;;;;9.68;6.65;;;;;;;26.39;44.95;100419.78;6664217;26;33515;-85
2023/05/30 09:47:58;;;;;;;9.27;6.50;;;;;;;25.58;46.08;100409.94;6668894;26;35023;-86
2023/05/30 09:51:11;;;;;;;8.10;6.65;;;;;;;25.33;46.73;100415.41;6676451;26;34282;-88
2023/05/30 09:54:20;;;;;;;8.10;6.30;;;;;;;26.74;44.89;100409.31;6665651;26;33768;-86
2023/05/30 09:57:27;;;;;;;8.38;6.45;;;;;;;27.44;43.20;100404.62;6665012;26;34445;-88
2023/05/30 10:00:31;;;;;;;9.45;7.07;;;;;;;27.57;42.67;100417.59;6663024;26;33681;-87
2023/05/30 10:03:56;;;;;;;10.18;7.18;;;;;;;26.59;46.04;100421.00;6664641;26;33454;-89
2023/05/30 10:07:02;;;;;;;12.48;7.07;;;;;;;26.94;46.26;100414.31;6672290;26;34075;-87
2023/05/30 10:10:16;;;;;;;14.07;8.15;;;;;;;27.41;45.51;100420.47;6562892;27;33851;-89
2023/05/30 10:13:20;;;;;;;10.52;7.30;;;;;;;26.12;48.61;100420.06;6563604;27;33600;-90
2023/05/30 10:16:23;;;;;;;12.15;8.00;;;;;;;26.07;51.30;100417.91;6556113;27;33812;-89
2023/05/30 10:19:43;;;;;;;13.15;8.40;;;;;;;26.07;53.02;100409.75;6575541;26;33968;-89
2023/05/30 10:22:52;;;;;;;14.02;8.27;;;;;;;27.06;49.51;100412.84;6664528;26;33842;-88
2023/05/30 10:25:56;;;;;;;12.98;8.48;;;;;;;27.67;47.08;100406.44;6662202;26;34182;-88
2023/05/30 10:29:08;;;;;;;15.02;7.65;;;;;;;28.51;43.57;100406.19;6660429;26;33956;-88
2023/05/30 10:32:21;;;;;;;13.73;7.22;;;;;;;30.07;41.05;100408.94;6663593;26;34761;-90
2023/05/30 10:35:26;;;;;;;12.50;6.93;;;;;;;30.64;39.25;100410.56;6664681;26;33644;-88
2023/05/30 10:38:38;;;;;;;9.45;6.57;;;;;;;29.76;40.34;100401.25;6671560;26;34436;-89
2023/05/30 10:41:45;;;;;;;14.27;6.87;;;;;;;28.99;41.66;100399.25;6667987;26;34229;-89
2023/05/30 10:45:22;;;;;;;9.75;6.68;;;;;;;28.77;43.95;100400.09;6657352;26;34818;-89
2023/05/30 10:55:55;;;;;;;17.00;6.80;;;;;;;27.87;41.47;100394.09;6661494;26;20098;-88
2023/05/30 10:59:11;;;;;;;10.88;6.20;;;;;;;27.68;42.31;100386.31;6664237;26;34114;-90
2023/05/30 11:02:20;;;;;;;10.32;5.93;;;;;;;27.70;41.26;100388.84;6666162;26;33848;-89
2023/05/30 11:05:30;;;;;;;6.70;5.95;;;;;;;28.53;40.07;100387.72;6666401;26;33495;-89
2023/05/30 11:08:38;;;;;;;9.98;6.55;;;;;;;29.70;37.86;100383.75;6667569;26;34077;-88
2023/05/30 11:11:45;;;;;;;9.80;6.15;;;;;;;27.86;41.35;100382.34;6667460;26;33684;-89
2023/05/30 11:14:57;;;;;;;6.80;5.95;;;;;;;26.51;44.79;100389.25;6666523;26;34475;-87
2023/05/30 11:18:00;;;;;;;11.43;6.35;;;;;;;26.89;44.17;100388.44;6675126;26;34678;-91
2023/05/30 11:21:03;;;;;;;7.35;5.68;;;;;;;27.13;44.44;100377.53;6670374;26;33951;-87
2023/05/30 11:24:17;;;;;;;7.32;6.00;;;;;;;26.53;45.71;100380.94;6667977;26;34233;-88
2023/05/30 11:27:20;;;;;;;8.88;5.85;;;;;;;26.23;46.08;100388.94;6676937;26;33739;-89
2023/05/30 11:34:45;;;;;;;6.80;6.10;;;;;;;27.10;43.67;100391.53;6654234;26;20379;-87
2023/05/30 11:37:53;;;;;;;6.87;5.78;;;;;;;27.12;44.04;100386.75;6674136;26;35201;-88
2023/05/30 11:40:56;;;;;;;11.70;5.97;;;;;;;26.85;44.61;100387.13;6666442;26;33899;-88
2023/05/30 11:44:03;;;;;;;6.65;5.82;;;;;;;27.27;44.30;100384.03;6664410;26;34436;-88
2023/05/30 11:47:10;;;;;;;8.50;5.45;;;;;;;27.40;44.57;100381.50;6664053;26;34488;-88
2023/05/30 11:50:40;;;;;;;6.65;5.90;;;;;;;27.93;42.57;100377.81;6659288;26;33849;-89
2023/05/30 11:53:44;;;;;;;10.65;6.50;;;;;;;27.70;42.72;100367.03;6665616;26;33648;-89
2023/05/30 11:56:50;;;;;;;7.65;6.20;;;;;;;27.77;42.27;100364.41;6661945;26;33671;-88
2023/05/30 11:59:56;;;;;;;11.27;5.78;;;;;;;26.98;44.53;100370.19;6673993;26;35020;-89
2023/05/30 12:03:02;;;;;;;9.27;6.10;;;;;;;27.13;44.06;100351.16;6659951;26;33759;-87
2023/05/30 12:06:13;;;;;;;6.90;6.18;;;;;;;26.22;45.40;100360.03;6665906;26;33916;-87
2023/05/30 12:09:26;;;;;;;7.60;6.30;;;;;;;25.99;46.44;100358.13;6665222;26;34613;-92
2023/05/30 12:12:31;;;;;;;7.65;6.20;;;;;;;25.95;46.82;100354.94;6662409;26;33666;-89
2023/05/30 12:15:38;;;;;;;8.70;6.80;;;;;;;25.84;47.01;100341.75;6663566;26;33915;-88
2023/05/30 12:18:41;;;;;;;8.65;6.10;;;;;;;25.70;46.23;100346.91;6662730;26;33614;-88
2023/05/30 12:21:58;;;;;;;9.57;5.95;;;;;;;25.89;46.91;100344.78;6659552;26;34568;-88
2023/05/30 12:29:05;;;;;;;8.30;6.05;;;;;;;26.45;44.71;100342.91;6655375;26;20078;-88
2023/05/30 12:32:11;;;;;;;9.00;6.57;;;;;;;26.52;44.15;100338.44;6661069;26;34801;-87
2023/05/30 12:35:15;;;;;;;9.23;5.80;;;;;;;25.82;46.74;100336.50;6662749;26;34031;-88
2023/05/30 12:38:21;;;;;;;9.20;5.82;;;;;;;25.75;44.55;100326.53;6659736;26;34513;-88
2023/05/30 12:41:31;;;;;;;9.18;6.12;;;;;;;25.88;46.89;100313.19;6662823;26;34575;-87
2023/05/30 12:44:47;;;;;;;9.93;5.82;;;;;;;25.80;44.70;100321.41;6663546;26;34827;-88
2023/05/30 12:47:51;;;;;;;8.75;6.20;;;;;;;26.26;43.72;100323.34;6663163;26;34386;-88
2023/05/30 12:50:55;;;;;;;10.55;6.90;;;;;;;26.73;43.96;100318.72;6664854;26;33776;-87
2023/05/30 12:53:59;;;;;;;14.20;6.10;;;;;;;26.09;43.34;100322.56;6669142;26;33986;-88
2023/05/30 12:57:06;;;;;;;10.77;6.25;;;;;;;25.79;45.55;100325.16;6663012;26;33975;-90
2023/05/30 13:00:10;;;;;;;9.95;5.95;;;;;;;25.41;45.59;100326.66;6664590;26;34905;-92
2023/05/30 13:03:14;;;;;;;8.20;6.22;;;;;;;25.99;43.86;100335.56;6661818;26;35226;-88
2023/05/30 13:06:18;;;;;;;11.18;5.85;;;;;;;26.00;42.50;100335.37;6662475;26;33592;-89
2023/05/30 13:09:22;;;;;;;7.43;6.10;;;;;;;26.02;43.99;100321.59;6663202;26;33703;-88
2023/05/30 13:12:30;;;;;;;13.23;6.30;;;;;;;25.47;44.54;100324.22;6664413;26;34938;-89
2023/05/30 13:15:35;;;;;;;11.70;6.60;;;;;;;25.37;46.57;100327.16;6668814;26;34131;-90
2023/05/30 13:18:42;;;;;;;10.00;6.43;;;;;;;25.75;45.49;100318.37;6681488;26;34199;-90
2023/05/30 13:21:49;;;;;;;7.70;6.40;;;;;;;25.56;42.56;100326.75;6677324;26;34816;-87
2023/05/30 13:24:55;;;;;;;8.05;5.60;;;;;;;25.12;45.77;100319.09;6663463;26;33599;-89
2023/05/30 13:27:59;;;;;;;7.68;6.62;;;;;;;25.58;45.12;100326.59;6663567;26;34135;-89
2023/05/30 13:31:05;;;;;;;17.00;6.78;;;;;;;25.35;45.67;100331.91;6665463;26;35169;-89
2023/05/30 13:34:12;;;;;;;10.15;6.62;;;;;;;25.04;47.68;100325.37;6665249;26;34483;-89
2023/05/30 13:37:15;;;;;;;8.30;6.25;;;;;;;24.85;47.85;100330.16;6664801;26;34037;-88
2023/05/30 13:40:19;;;;;;;7.95;6.03;;;;;;;25.15;47.18;100319.59;6671339;26;33931;-88
2023/05/30 13:43:22;;;;;;;8.43;5.90;;;;;;;25.20;46.19;100321.78;6680315;26;34097;-88
2023/05/30 13:46:27;;;;;;;11.63;6.70;;;;;;;25.43;46.95;100318.31;6666808;26;35163;-88
2023/05/30 13:49:37;;;;;;;10.30;6.62;;;;;;;25.38;46.10;100320.69;6662958;26;34522;-88
2023/05/30 13:52:43;;;;;;;12.98;6.43;;;;;;;25.54;45.45;100315.22;6666054;26;34367;-88
2023/05/30 13:55:48;;;;;;;11.05;6.22;;;;;;;25.97;44.21;100314.84;6666308;26;33794;-88
2023/05/30 13:58:56;;;;;;;8.32;5.90;;;;;;;25.55;45.35;100303.34;6663761;26;33719;-88
2023/05/30 14:02:03;;;;;;;7.90;6.37;;;;;;;25.42;44.42;100305.75;6662350;26;34782;-87
2023/05/30 14:05:13;;;;;;;11.05;6.45;;;;;;;24.88;46.92;100301.84;6661887;26;33856;-87
2023/05/30 14:08:22;;;;;;;9.07;6.65;;;;;;;24.82;47.44;100291.69;6662222;26;34094;-87
2023/05/30 14:11:29;;;;;;;9.90;6.10;;;;;;;24.42;47.88;100295.09;6663097;26;34227;-89
2023/05/30 14:14:35;;;;;;;11.63;6.55;;;;;;;24.90;47.97;100300.66;6662404;26;34946;-87
2023/05/30 14:17:44;;;;;;;9.93;6.10;;;;;;;25.28;46.53;100304.59;6666948;26;34052;-87
2023/05/30 14:20:51;;;;;;;13.68;7.05;;;;;;;25.09;45.74;100305.88;6667189;26;34606;-89
2023/05/30 14:23:58;;;;;;;15.07;6.70;;;;;;;24.77;48.77;100335.56;6671456;26;34806;-90
2023/05/30 14:27:04;;;;;;;23.20;7.18;;;;;;;24.28;49.23;100377.91;6666280;26;34497;-85
2023/05/30 14:30:12;;;;;;;15.50;7.50;;;;;;;23.34;54.54;100375.16;6661697;26;34805;-85
2023/05/30 14:33:20;;;;;;;12.88;6.80;;;;;;;22.77;57.21;100389.94;6668259;26;33648;-85
2023/05/30 14:36:27;;;;;;;15.90;6.78;;;;;;;21.89;60.27;100398.50;6673952;26;33382;-84
2023/05/30 14:39:34;;;;;;;12.55;7.05;;;;;;;21.09;64.71;100380.00;6664389;26;33937;-85
2023/05/30 14:42:41;;;;;;;13.00;6.55;;;;;;;21.02;61.09;100405.84;6660952;26;34540;-85
2023/05/30 14:45:49;;;;;;;11.70;6.00;;;;;;;21.05;63.37;100419.03;6661219;26;33936;-85
2023/05/30 14:48:56;;;;;;;11.55;6.50;;;;;;;20.65;61.46;100421.72;6661463;26;34972;-86
2023/05/30 14:52:06;;;;;;;11.73;6.37;;;;;;;20.57;60.55;100413.50;6660586;26;34886;-85
2023/05/30 14:55:12;;;;;;;14.82;6.90;;;;;;;20.56;61.71;100419.84;6660606;26;34621;-85
2023/05/30 14:58:17;;;;;;;10.82;5.75;;;;;;;20.20;66.59;100405.06;6661259;26;34226;-86
2023/05/30 15:01:23;;;;;;;13.62;6.20;;;;;;;20.39;59.44;100403.41;6659965;26;34015;-86
2023/05/30 15:04:48;;;;;;;9.50;6.00;;;;;;;20.07;64.78;100409.87;6661499;26;34461;-85
2023/05/30 15:07:56;;;;;;;9.98;6.28;;;;;;;19.77;66.33;100420.47;6662514;26;33806;-85
2023/05/30 15:11:04;;;;;;;10.35;6.50;;;;;;;19.35;73.36;100428.62;6664761;26;34324;-85
2023/05/30 15:14:18;;;;;;;12.48;7.53;;;;;;;18.91;78.80;100440.31;6670179;26;34121;-85
2023/05/30 15:17:25;;;;;;;13.65;6.97;;;;;;;18.49;85.35;100449.16;6661352;26;34171;-87
2023/05/30 15:20:33;;;;;;;12.55;7.07;;;;;;;18.39;89.69;100456.25;6662782;26;34516;-91
2023/05/30 15:23:38;;;;;;;12.77;7.00;;;;;;;17.95;90.89;100445.44;6662764;26;34380;-91
2023/05/30 15:26:45;;;;;;;10.45;7.47;;;;;;;18.00;91.74;100438.72;6663267;26;33811;-89
2023/05/30 15:29:56;;;;;;;11.70;7.43;;;;;;;17.55;92.46;100431.50;6669580;26;33916;-89
2023/05/30 15:33:00;;;;;;;11.52;6.95;;;;;;;17.69;93.80;100427.75;6671895;26;33954;-88
